Time;durP1;ratioP1;P1;durP2;ratioP2;P2;SDS_P1;SDS_P2;PMS_P1;PMS_P2;Temp;Humidity;BMP_temperature;BMP_pressure;BME280_temperature;BME280_humidity;BME280_pressure;Samples;Min_cycle;Max_cycle;Signal;HPM_P1;HPM_P2
2021/03/03 00:00:21;;;;;;;78.07;33.28;;;;;;;1.21;100.00;100671.25;4283359;81;28581;-81
2021/03/03 00:06:25;;;;;;;83.30;34.25;;;;;;;1.06;100.00;100664.10;4258445;81;28542;-81
2021/03/03 00:12:27;;;;;;;78.25;32.73;;;;;;;1.01;100.00;100672.08;4276298;81;28566;-82
2021/03/03 00:18:29;;;;;;;87.37;34.63;;;;;;;1.00;100.00;100661.14;4273059;81;28605;-81
2021/03/03 00:24:31;;;;;;;80.07;32.98;;;;;;;0.92;100.00;100662.61;4265754;81;28602;-81
2021/03/03 00:30:33;;;;;;;78.92;31.85;;;;;;;0.75;100.00;100662.69;4263728;81;43001;-80
2021/03/03 00:36:35;;;;;;;76.15;31.35;;;;;;;0.74;100.00;100653.57;4279127;81;43711;-79
2021/03/03 00:42:37;;;;;;;79.65;30.90;;;;;;;0.70;100.00;100660.92;4286995;81;28573;-76
2021/03/03 00:48:40;;;;;;;80.47;33.60;;;;;;;0.63;100.00;100647.82;4286898;82;43058;-76
2021/03/03 00:54:43;;;;;;;73.60;31.45;;;;;;;0.55;100.00;100651.93;4233683;82;28653;-76
2021/03/03 01:00:47;;;;;;;79.13;31.67;;;;;;;0.47;100.00;100641.63;4280884;82;28567;-77
2021/03/03 01:06:50;;;;;;;75.35;30.75;;;;;;;0.34;100.00;100641.31;4270137;81;44094;-77
2021/03/03 01:12:52;;;;;;;75.08;30.82;;;;;;;0.17;100.00;100639.18;4278065;81;28608;-77
2021/03/03 01:18:55;;;;;;;76.77;32.13;;;;;;;0.19;100.00;100638.09;4271090;81;43394;-80
2021/03/03 01:24:57;;;;;;;78.72;31.87;;;;;;;0.27;100.00;100638.80;4273496;81;42236;-80
2021/03/03 01:30:59;;;;;;;75.37;32.28;;;;;;;0.16;100.00;100629.09;4270654;81;42683;-80
2021/03/03 01:37:02;;;;;;;75.80;32.40;;;;;;;0.12;100.00;100619.24;4275538;81;28564;-79
2021/03/03 01:43:05;;;;;;;75.47;33.25;;;;;;;-0.02;100.00;100613.73;4203652;83;28936;-80
2021/03/03 01:49:07;;;;;;;79.92;32.85;;;;;;;-0.09;100.00;100613.86;4187308;84;42952;-78
2021/03/03 01:55:10;;;;;;;75.20;31.70;;;;;;;-0.21;100.00;100614.38;4180280;82;44095;-79
2021/03/03 02:01:14;;;;;;;78.70;32.73;;;;;;;-0.29;100.00;100616.78;4223581;82;42210;-79
2021/03/03 02:07:57;;;;;;;78.35;33.20;;;;;;;-0.32;100.00;100612.57;4220268;82;42778;-81
2021/03/03 02:14:03;;;;;;;81.72;33.45;;;;;;;-0.46;100.00;100603.08;4240428;81;43073;-80
2021/03/03 02:20:11;;;;;;;77.78;32.05;;;;;;;-0.46;100.00;100596.97;4181990;83;43047;-80
2021/03/03 02:26:15;;;;;;;80.17;32.88;;;;;;;-0.42;100.00;100595.76;4159662;84;43056;-81
2021/03/03 02:32:19;;;;;;;76.92;31.85;;;;;;;-0.38;100.00;100586.61;4286366;81;42548;-80
2021/03/03 02:38:22;;;;;;;80.60;32.40;;;;;;;-0.45;100.00;100585.44;4267672;81;43094;-81
2021/03/03 02:44:26;;;;;;;75.20;31.52;;;;;;;-0.57;100.00;100579.31;4291670;81;43506;-80
2021/03/03 02:50:28;;;;;;;76.67;31.75;;;;;;;-0.46;100.00;100579.30;4256940;82;43676;-79
2021/03/03 02:56:30;;;;;;;77.95;32.33;;;;;;;-0.58;100.00;100574.98;4292212;81;43387;-78
2021/03/03 03:02:35;;;;;;;77.67;33.02;;;;;;;-0.62;100.00;100573.56;4301201;81;42210;-77
2021/03/03 03:08:40;;;;;;;82.07;34.77;;;;;;;-0.65;100.00;100578.59;4263146;82;28612;-77
2021/03/03 03:20:56;;;;;;;79.85;32.05;;;;;;;-0.70;100.00;100571.49;4602965;76;82222;-77
2021/03/03 03:26:59;;;;;;;76.62;32.78;;;;;;;-0.83;100.00;100565.03;4498597;79;43659;-76
2021/03/03 03:33:01;;;;;;;76.55;31.75;;;;;;;-0.85;100.00;100566.92;4512722;78;43687;-80
2021/03/03 03:39:07;;;;;;;78.52;33.15;;;;;;;-0.91;100.00;100560.81;4493940;79;43215;-80
2021/03/03 03:45:11;;;;;;;76.33;30.95;;;;;;;-1.02;100.00;100554.56;4498090;79;43644;-80
2021/03/03 03:51:13;;;;;;;78.45;33.38;;;;;;;-1.05;100.00;100549.50;4484958;78;43068;-79
2021/03/03 03:57:16;;;;;;;78.92;32.58;;;;;;;-1.12;100.00;100550.95;4504460;78;43289;-79
2021/03/03 04:03:18;;;;;;;74.37;31.62;;;;;;;-1.10;100.00;100550.81;4509843;78;44097;-80
2021/03/03 04:09:21;;;;;;;76.90;32.40;;;;;;;-1.24;100.00;100546.61;4514714;78;43660;-79
2021/03/03 04:15:23;;;;;;;77.87;32.45;;;;;;;-1.25;100.00;100544.44;4518150;77;42999;-79
2021/03/03 04:21:26;;;;;;;74.62;31.97;;;;;;;-1.26;100.00;100548.04;4490753;78;44097;-80
2021/03/03 04:27:28;;;;;;;75.72;32.73;;;;;;;-1.33;100.00;100540.22;4513077;79;44163;-80
2021/03/03 04:33:31;;;;;;;75.83;30.95;;;;;;;-1.35;100.00;100541.67;4514769;78;44123;-81
2021/03/03 04:39:33;;;;;;;74.15;31.52;;;;;;;-1.39;100.00;100530.97;4503021;78;44074;-80
2021/03/03 04:45:35;;;;;;;77.27;32.73;;;;;;;-1.38;100.00;100535.78;4508719;78;43407;-80
2021/03/03 04:51:37;;;;;;;73.55;30.90;;;;;;;-1.43;100.00;100521.13;4512352;78;44096;-80
2021/03/03 04:57:39;;;;;;;69.77;30.15;;;;;;;-1.45;100.00;100520.41;4503199;78;44101;-80
2021/03/03 05:03:41;;;;;;;74.15;29.90;;;;;;;-1.51;100.00;100527.48;4514432;78;44077;-80
2021/03/03 05:09:44;;;;;;;67.85;29.90;;;;;;;-1.47;100.00;100514.87;4514447;78;44089;-80
2021/03/03 05:15:46;;;;;;;77.37;30.85;;;;;;;-1.45;100.00;100513.81;4514361;78;43384;-80
2021/03/03 05:21:48;;;;;;;76.20;29.80;;;;;;;-1.40;100.00;100508.19;4502928;78;44078;-80
2021/03/03 05:27:50;;;;;;;69.97;30.15;;;;;;;-1.56;100.00;100500.12;4500175;78;44120;-80
2021/03/03 05:33:53;;;;;;;65.92;30.62;;;;;;;-1.54;100.00;100494.72;4513170;78;44162;-80
2021/03/03 05:39:55;;;;;;;71.07;29.60;;;;;;;-1.55;100.00;100501.81;4513238;78;44078;-80
2021/03/03 05:45:59;;;;;;;71.92;29.72;;;;;;;-1.42;100.00;100500.88;4490858;78;44116;-80
2021/03/03 05:52:02;;;;;;;72.45;30.55;;;;;;;-1.31;100.00;100501.35;4513360;78;28607;-78
2021/03/03 05:58:09;;;;;;;74.40;30.08;;;;;;;-1.22;100.00;100505.92;4509924;79;44077;-82
2021/03/03 06:04:12;;;;;;;71.42;31.23;;;;;;;-1.25;100.00;100502.21;4500217;78;44074;-80
2021/03/03 06:10:15;;;;;;;74.62;30.08;;;;;;;-1.04;100.00;100504.16;4506746;78;43757;-80
2021/03/03 06:16:19;;;;;;;70.28;30.40;;;;;;;-1.00;100.00;100498.98;4459951;78;44078;-79
2021/03/03 06:22:26;;;;;;;72.83;30.17;;;;;;;-0.84;100.00;100498.62;4496348;79;28562;-81
2021/03/03 06:28:45;;;;;;;63.80;27.75;;;;;;;-0.61;100.00;100502.09;4511646;78;43383;-84
2021/03/03 06:34:50;;;;;;;61.53;27.17;;;;;;;-0.38;100.00;100493.29;4488060;78;43205;-82
2021/03/03 06:40:55;;;;;;;56.98;24.98;;;;;;;-0.26;100.00;100494.08;4499356;78;44227;-82
2021/03/03 06:47:08;;;;;;;49.50;21.87;;;;;;;-0.02;100.00;100493.88;4474539;77;44467;-82
2021/03/03 06:53:10;;;;;;;48.63;22.15;;;;;;;0.30;100.00;100492.20;4500439;78;44442;-81
2021/03/03 06:59:26;;;;;;;47.58;21.17;;;;;;;0.56;100.00;100492.65;4504509;77;44163;-82
2021/03/03 07:05:33;;;;;;;51.83;20.80;;;;;;;0.78;100.00;100484.20;4498208;78;43645;-81
2021/03/03 07:11:36;;;;;;;41.58;19.15;;;;;;;1.03;100.00;100482.07;4507148;78;43234;-83
2021/03/03 07:17:41;;;;;;;44.58;20.27;;;;;;;1.26;100.00;100470.80;4507704;78;43762;-81
2021/03/03 07:23:49;;;;;;;43.43;19.37;;;;;;;1.53;100.00;100473.32;4508473;78;28547;-76
2021/03/03 07:30:01;;;;;;;45.95;21.35;;;;;;;1.86;100.00;100470.41;4385524;80;43752;-79
2021/03/03 07:36:06;;;;;;;45.23;19.95;;;;;;;2.15;100.00;100468.25;4355543;81;28575;-80
2021/03/03 07:42:13;;;;;;;50.08;22.13;;;;;;;2.35;100.00;100459.28;4379553;80;28544;-79
2021/03/03 07:48:16;;;;;;;48.15;20.35;;;;;;;2.58;100.00;100465.59;4310728;81;28542;-79
2021/03/03 07:54:19;;;;;;;57.05;23.00;;;;;;;2.76;100.00;100462.20;4311944;82;28618;-80
2021/03/03 08:00:26;;;;;;;54.93;23.25;;;;;;;3.00;100.00;100452.39;4338149;81;44127;-80
2021/03/03 08:06:36;;;;;;;46.02;21.45;;;;;;;3.26;100.00;100458.34;4364696;80;28586;-78
2021/03/03 08:12:57;;;;;;;46.55;20.37;;;;;;;3.56;100.00;100448.37;4362026;81;28637;-78
2021/03/03 08:18:59;;;;;;;46.98;20.65;;;;;;;3.88;100.00;100436.87;4350992;81;28934;-78
2021/03/03 08:25:01;;;;;;;45.55;20.82;;;;;;;4.16;100.00;100438.94;4370839;81;28563;-79
2021/03/03 08:31:20;;;;;;;40.43;17.90;;;;;;;4.34;100.00;100432.75;4346924;80;28540;-79
2021/03/03 08:37:29;;;;;;;48.50;20.40;;;;;;;4.59;100.00;100424.91;4308991;80;28620;-78
2021/03/03 08:43:36;;;;;;;46.60;21.35;;;;;;;4.81;100.00;100420.02;4337058;80;28557;-81
2021/03/03 08:49:39;;;;;;;42.45;18.07;;;;;;;5.02;100.00;100411.12;4362332;81;28591;-81
2021/03/03 08:55:41;;;;;;;39.18;17.17;;;;;;;5.29;100.00;100414.55;4385370;81;28571;-79
2021/03/03 09:02:08;;;;;;;36.95;15.93;;;;;;;5.65;100.00;100416.61;4381512;80;28556;-79
2021/03/03 09:08:24;;;;;;;34.35;15.75;;;;;;;5.94;100.00;100409.97;4313220;82;28587;-80
2021/03/03 09:14:27;;;;;;;38.25;16.60;;;;;;;6.17;100.00;100402.16;4357531;82;28665;-81
2021/03/03 09:20:29;;;;;;;36.70;16.82;;;;;;;6.38;100.00;100383.42;4333400;80;28578;-81
2021/03/03 09:26:46;;;;;;;33.10;15.58;;;;;;;6.62;100.00;100387.03;4376735;80;28633;-81
2021/03/03 09:33:25;;;;;;;33.28;16.23;;;;;;;6.95;100.00;100379.72;4331380;80;259843;-83
2021/03/03 09:39:36;;;;;;;29.72;13.75;;;;;;;7.19;100.00;100383.80;4289256;81;28612;-78
2021/03/03 09:45:40;;;;;;;27.82;12.85;;;;;;;7.36;100.00;100376.50;4266072;82;28546;-81
2021/03/03 10:07:37;;;;;;;24.45;12.70;;;;;;;8.36;97.64;100353.21;4283897;82;64760;-81
2021/03/03 10:14:05;;;;;;;23.60;11.18;;;;;;;8.77;87.95;100343.06;4650591;75;86714;-79
2021/03/03 10:20:34;;;;;;;19.48;10.00;;;;;;;8.86;90.26;100338.45;4616054;76;28567;-83
2021/03/03 10:26:45;;;;;;;18.62;8.80;;;;;;;9.03;83.73;100333.16;4603712;77;28563;-82
2021/03/03 10:32:47;;;;;;;23.95;10.65;;;;;;;9.17;85.94;100325.28;4592216;76;28599;-82
2021/03/03 10:38:55;;;;;;;16.12;8.75;;;;;;;9.33;80.87;100322.33;4603184;76;28586;-82
2021/03/03 10:45:00;;;;;;;21.77;9.53;;;;;;;9.45;76.35;100312.42;4600438;76;28559;-84
2021/03/03 10:51:02;;;;;;;18.92;8.58;;;;;;;9.59;78.47;100303.48;4597445;76;28566;-87
2021/03/03 10:57:08;;;;;;;16.80;7.45;;;;;;;9.70;76.35;100290.02;4603218;77;28543;-85
2021/03/03 11:03:10;;;;;;;16.30;8.07;;;;;;;10.06;62.35;100278.81;4605930;77;28595;-86
2021/03/03 11:09:16;;;;;;;13.20;6.17;;;;;;;10.15;60.73;100259.31;4597546;76;28593;-86
2021/03/03 11:15:18;;;;;;;11.10;5.90;;;;;;;10.33;50.88;100240.81;4583740;76;28582;-85
2021/03/03 11:21:20;;;;;;;11.65;5.45;;;;;;;10.68;50.67;100235.91;4590872;76;28567;-86
2021/03/03 11:27:22;;;;;;;10.25;4.80;;;;;;;10.66;54.29;100229.91;4599971;76;28566;-82
2021/03/03 11:33:27;;;;;;;8.98;4.90;;;;;;;10.99;44.67;100214.35;4593462;76;28624;-84
2021/03/03 11:39:29;;;;;;;10.58;4.72;;;;;;;10.98;50.26;100204.62;4594635;76;28575;-81
2021/03/03 11:45:31;;;;;;;12.43;5.03;;;;;;;11.18;47.59;100198.94;4434704;79;28638;-87
2021/03/03 11:51:33;;;;;;;10.00;4.95;;;;;;;11.58;49.15;100190.84;4453999;80;28580;-86
2021/03/03 11:57:37;;;;;;;12.45;6.17;;;;;;;11.53;50.57;100181.23;4386846;78;28622;-86
2021/03/03 12:03:39;;;;;;;10.48;5.00;;;;;;;11.78;48.41;100171.12;4519419;78;28651;-86
2021/03/03 12:09:42;;;;;;;10.60;4.75;;;;;;;11.74;50.27;100160.47;4534077;77;28572;-86
2021/03/03 12:15:47;;;;;;;8.53;4.37;;;;;;;11.88;47.96;100147.26;4485176;77;28544;-87
2021/03/03 12:21:50;;;;;;;8.50;4.40;;;;;;;11.96;52.12;100138.94;4519064;77;28556;-87
2021/03/03 12:27:52;;;;;;;7.95;3.72;;;;;;;12.11;47.62;100125.23;4506326;77;28640;-86
2021/03/03 12:33:55;;;;;;;5.42;3.10;;;;;;;12.13;45.94;100111.52;4514826;77;28503;-87
2021/03/03 12:39:57;;;;;;;8.05;3.20;;;;;;;12.32;39.97;100099.50;4529348;77;28647;-85
2021/03/03 12:45:59;;;;;;;5.87;3.33;;;;;;;12.37;43.55;100092.95;4504576;77;28608;-86
2021/03/03 12:52:03;;;;;;;8.70;3.45;;;;;;;12.35;44.24;100086.95;4525553;77;28561;-85
2021/03/03 12:58:07;;;;;;;5.83;2.37;;;;;;;12.54;41.41;100073.02;4490541;78;28628;-90
2021/03/03 13:04:09;;;;;;;2.72;1.70;;;;;;;12.56;42.09;100069.57;4520580;78;28623;-87
2021/03/03 13:10:13;;;;;;;3.65;1.80;;;;;;;12.74;37.67;100047.76;4476481;77;28624;-84
2021/03/03 13:16:15;;;;;;;5.33;2.12;;;;;;;12.81;37.46;100040.44;4423142;78;28576;-87
2021/03/03 13:22:17;;;;;;;4.50;2.00;;;;;;;13.03;37.98;100032.73;4412866;78;28552;-85
2021/03/03 13:28:20;;;;;;;5.10;2.58;;;;;;;13.02;35.48;100031.09;4425650;78;28577;-83
2021/03/03 13:34:22;;;;;;;2.83;1.77;;;;;;;13.13;36.36;100002.55;4427558;78;28603;-84
2021/03/03 13:40:24;;;;;;;4.60;2.45;;;;;;;13.03;37.30;100001.70;4409778;78;28552;-85
2021/03/03 13:46:39;;;;;;;4.00;2.40;;;;;;;12.98;39.61;99994.80;4417414;78;28575;-82
2021/03/03 13:52:45;;;;;;;4.28;2.33;;;;;;;13.06;36.48;99982.88;4418656;78;28563;-84
2021/03/03 13:58:47;;;;;;;4.60;2.33;;;;;;;13.10;36.88;99976.81;4438071;78;28561;-85
2021/03/03 14:04:49;;;;;;;6.75;2.50;;;;;;;13.07;35.63;99968.33;4454708;78;28552;-82
2021/03/03 14:10:51;;;;;;;6.08;2.72;;;;;;;13.09;38.73;99955.42;4438229;77;28605;-84
2021/03/03 14:16:53;;;;;;;5.97;3.15;;;;;;;12.96;38.92;99944.25;4474316;79;28557;-82
2021/03/03 14:22:56;;;;;;;8.50;4.00;;;;;;;13.19;34.87;99938.72;4482977;79;28561;-83
2021/03/03 14:29:05;;;;;;;9.60;3.70;;;;;;;13.17;37.46;99928.13;4475201;77;28642;-82
2021/03/03 14:35:08;;;;;;;7.17;3.67;;;;;;;13.17;35.68;99913.80;4333749;81;28587;-78
2021/03/03 14:41:10;;;;;;;11.18;4.47;;;;;;;13.14;35.46;99902.11;4381076;79;28561;-78
2021/03/03 14:47:12;;;;;;;9.93;5.10;;;;;;;13.27;35.28;99888.97;4396658;79;28596;-78
2021/03/03 14:53:14;;;;;;;12.00;4.50;;;;;;;13.20;36.32;99879.06;4313243;81;28667;-78
2021/03/03 14:59:17;;;;;;;9.70;4.80;;;;;;;13.17;35.43;99870.59;4384269;79;28573;-78
2021/03/03 15:05:19;;;;;;;10.90;5.10;;;;;;;13.11;35.67;99863.72;4390910;79;28940;-77
2021/03/03 15:11:22;;;;;;;8.08;4.33;;;;;;;13.16;37.11;99852.75;4362981;80;28557;-84
2021/03/03 15:17:24;;;;;;;7.97;4.40;;;;;;;13.07;37.61;99854.95;4505818;78;28641;-82
2021/03/03 15:23:26;;;;;;;9.68;4.80;;;;;;;12.97;37.14;99840.11;4486054;77;28590;-81
2021/03/03 15:29:29;;;;;;;11.85;4.97;;;;;;;12.94;37.43;99826.24;4499178;77;28545;-83
2021/03/03 15:35:31;;;;;;;12.93;4.90;;;;;;;12.83;38.17;99825.16;4495707;77;28612;-82
2021/03/03 15:41:33;;;;;;;12.18;4.70;;;;;;;12.66;37.26;99822.24;4513703;78;28544;-82
2021/03/03 15:47:36;;;;;;;13.28;4.58;;;;;;;12.50;38.90;99815.04;4499477;77;28619;-84
2021/03/03 15:53:39;;;;;;;10.85;5.22;;;;;;;12.43;37.85;99814.28;4503834;78;28604;-83
2021/03/03 15:59:41;;;;;;;13.22;5.67;;;;;;;12.29;39.35;99807.39;4492716;78;28537;-82
2021/03/03 16:05:43;;;;;;;13.95;5.60;;;;;;;12.00;41.61;99805.97;4497671;78;28662;-85
2021/03/03 16:11:45;;;;;;;20.55;7.17;;;;;;;11.68;44.25;99811.96;4512532;77;28530;-85
2021/03/03 16:17:47;;;;;;;18.87;7.67;;;;;;;11.30;47.23;99813.14;4506866;77;28573;-85
2021/03/03 16:23:50;;;;;;;18.80;8.00;;;;;;;10.95;48.77;99801.45;4523676;77;28560;-89
2021/03/03 16:29:52;;;;;;;19.80;8.63;;;;;;;10.73;50.15;99800.41;4495133;77;28620;-85
2021/03/03 16:35:55;;;;;;;21.45;9.10;;;;;;;10.56;51.66;99805.41;4485435;79;28562;-84
2021/03/03 16:41:58;;;;;;;27.42;9.88;;;;;;;10.27;52.79;99796.80;4425581;80;28582;-84
2021/03/03 16:48:00;;;;;;;23.70;10.45;;;;;;;10.08;53.66;99802.50;4458874;78;28574;-86
2021/03/03 16:54:04;;;;;;;27.15;11.28;;;;;;;9.92;54.56;99796.23;4404863;80;28592;-86
2021/03/03 17:00:10;;;;;;;27.60;10.95;;;;;;;9.63;57.52;99801.80;4470782;79;28613;-87
2021/03/03 17:06:12;;;;;;;28.05;10.78;;;;;;;9.46;58.16;99810.27;4459434;77;28579;-82
2021/03/03 17:12:15;;;;;;;29.60;10.53;;;;;;;9.38;59.43;99800.25;4454236;79;28668;-81
2021/03/03 17:18:18;;;;;;;26.85;11.25;;;;;;;9.22;59.93;99792.89;4459260;79;28564;-81
2021/03/03 17:24:20;;;;;;;27.77;11.95;;;;;;;9.02;62.41;99790.17;4473018;79;28540;-77
2021/03/03 17:30:25;;;;;;;36.28;13.78;;;;;;;8.94;64.05;99791.16;4453257;79;28544;-79
2021/03/03 17:36:31;;;;;;;31.27;14.45;;;;;;;8.77;64.29;99791.53;4453625;78;28548;-81
2021/03/03 17:42:33;;;;;;;31.57;15.05;;;;;;;8.69;66.66;99791.70;4453670;78;28549;-82
2021/03/03 17:48:38;;;;;;;39.20;16.60;;;;;;;8.53;67.20;99791.53;4491754;77;28636;-76
2021/03/03 17:54:43;;;;;;;43.30;15.72;;;;;;;8.43;67.63;99777.64;4456735;79;28578;-81
2021/03/03 18:00:51;;;;;;;30.62;14.75;;;;;;;8.35;71.52;99767.39;4455379;79;28630;-81
2021/03/03 18:06:52;;;;;;;36.80;16.05;;;;;;;8.21;69.08;99761.13;4498850;77;28941;-79
2021/03/03 18:12:56;;;;;;;37.93;15.55;;;;;;;8.07;71.17;99755.39;4486698;78;28810;-81
2021/03/03 18:18:58;;;;;;;39.70;16.37;;;;;;;7.92;72.05;99754.17;4510637;77;28632;-80
2021/03/03 18:25:03;;;;;;;47.80;19.52;;;;;;;7.78;71.70;99751.41;4491266;77;28591;-83
2021/03/03 18:31:06;;;;;;;40.70;17.07;;;;;;;7.63;77.17;99744.81;4500263;78;28663;-81
2021/03/03 18:37:08;;;;;;;46.48;18.67;;;;;;;7.42;79.53;99730.95;4496920;77;28609;-79
2021/03/03 18:43:12;;;;;;;52.20;21.33;;;;;;;7.24;79.61;99738.10;4499363;77;28548;-82
2021/03/03 18:49:15;;;;;;;52.13;22.55;;;;;;;7.14;77.67;99742.45;4495682;77;28536;-84
2021/03/03 18:55:18;;;;;;;52.05;22.65;;;;;;;7.02;84.03;99726.57;4500561;77;28594;-83
2021/03/03 19:01:22;;;;;;;78.30;34.03;;;;;;;6.97;80.33;99728.48;4489492;77;28629;-81
2021/03/03 19:07:25;;;;;;;52.50;23.90;;;;;;;6.84;84.13;99727.85;4489876;77;29039;-81
2021/03/03 19:13:27;;;;;;;50.90;21.97;;;;;;;6.78;88.34;99724.59;4513715;78;28564;-82
2021/03/03 19:19:29;;;;;;;47.85;19.60;;;;;;;6.72;86.67;99714.15;4505311;77;28585;-81
2021/03/03 19:25:32;;;;;;;47.80;20.27;;;;;;;6.51;90.83;99707.75;4514771;77;28617;-87
2021/03/03 19:31:34;;;;;;;45.43;19.25;;;;;;;6.18;94.36;99714.86;4506245;77;28609;-80
2021/03/03 19:37:37;;;;;;;45.00;17.55;;;;;;;6.17;88.47;99702.53;4448436;79;28610;-81
2021/03/03 19:43:39;;;;;;;47.45;18.10;;;;;;;5.95;94.73;99706.42;4456623;79;28555;-81
2021/03/03 19:49:41;;;;;;;66.12;28.25;;;;;;;5.77;97.83;99705.42;4446715;79;28575;-79
2021/03/03 19:55:43;;;;;;;71.12;30.25;;;;;;;5.80;100.00;99702.91;4462073;79;28594;-81
2021/03/03 20:01:47;;;;;;;67.27;29.75;;;;;;;5.79;100.00;99690.58;4452483;79;28612;-80
2021/03/03 20:07:49;;;;;;;68.05;29.15;;;;;;;5.93;100.00;99676.39;4446668;79;28591;-79
2021/03/03 20:13:57;;;;;;;68.75;30.43;;;;;;;6.18;100.00;99671.30;4433050;79;28583;-82
2021/03/03 20:19:59;;;;;;;70.00;29.67;;;;;;;6.19;100.00;99659.10;4452943;79;28539;-80
2021/03/03 20:26:02;;;;;;;71.07;30.55;;;;;;;6.25;100.00;99668.20;4450735;79;28606;-81
2021/03/03 20:32:08;;;;;;;71.97;30.60;;;;;;;6.26;100.00;99664.52;4459029;79;28544;-81
2021/03/03 20:38:11;;;;;;;78.75;33.75;;;;;;;6.14;100.00;99661.00;4461140;79;28658;-79
2021/03/03 20:44:14;;;;;;;76.47;34.53;;;;;;;6.05;100.00;99655.96;4461140;79;28601;-80
2021/03/03 20:50:17;;;;;;;87.60;37.98;;;;;;;5.90;100.00;99658.09;4453941;79;28569;-80
2021/03/03 20:56:19;;;;;;;83.60;36.15;;;;;;;5.81;100.00;99658.70;4461590;79;28615;-83
2021/03/03 21:02:21;;;;;;;83.25;37.70;;;;;;;5.72;100.00;99657.14;4467501;79;28564;-83
2021/03/03 21:08:24;;;;;;;90.42;38.67;;;;;;;5.70;100.00;99649.83;4467239;79;28548;-80
2021/03/03 21:14:26;;;;;;;84.87;36.60;;;;;;;5.66;100.00;99648.03;4477227;79;28646;-81
2021/03/03 21:20:29;;;;;;;84.07;36.33;;;;;;;5.63;100.00;99644.41;4455427;79;28620;-83
2021/03/03 21:26:34;;;;;;;83.50;37.15;;;;;;;5.77;100.00;99635.23;4458696;79;29011;-84
2021/03/03 21:32:36;;;;;;;94.77;40.70;;;;;;;5.89;100.00;99623.59;4455949;79;28617;-82
2021/03/03 21:38:38;;;;;;;92.70;40.90;;;;;;;6.00;100.00;99615.11;4461556;79;28624;-82
2021/03/03 21:44:43;;;;;;;92.17;40.03;;;;;;;6.03;100.00;99613.42;4447700;79;28554;-86
2021/03/03 21:50:44;;;;;;;90.35;38.55;;;;;;;5.97;100.00;99602.12;4464203;79;28560;-91
2021/03/03 21:56:46;;;;;;;91.57;40.20;;;;;;;6.00;100.00;99601.24;4481583;79;28578;-82
2021/03/03 22:02:48;;;;;;;92.02;39.45;;;;;;;5.92;100.00;99589.86;4466067;79;28635;-81
2021/03/03 22:08:51;;;;;;;85.90;39.35;;;;;;;5.85;100.00;99583.92;4477575;79;28576;-82
2021/03/03 22:14:53;;;;;;;85.30;36.83;;;;;;;5.76;100.00;99577.55;4450196;79;28617;-83
2021/03/03 22:20:55;;;;;;;83.62;35.80;;;;;;;5.89;100.00;99574.23;4439169;79;28612;-81
2021/03/03 22:26:57;;;;;;;79.53;34.03;;;;;;;5.90;100.00;99567.88;4435548;79;28613;-81
2021/03/03 22:32:59;;;;;;;83.15;35.92;;;;;;;6.02;100.00;99565.55;4488574;77;28556;-83
2021/03/03 22:39:03;;;;;;;80.83;34.73;;;;;;;6.13;100.00;99563.72;4446533;80;28592;-81
2021/03/03 22:45:06;;;;;;;77.20;33.48;;;;;;;6.17;100.00;99565.52;4504568;78;28544;-81
2021/03/03 22:51:09;;;;;;;69.58;29.92;;;;;;;6.14;100.00;99552.02;4496541;78;28604;-83
2021/03/03 22:57:11;;;;;;;68.15;28.60;;;;;;;6.13;100.00;99545.03;4409732;80;28587;-83
2021/03/03 23:03:15;;;;;;;66.45;30.20;;;;;;;6.11;100.00;99539.91;4469811;79;28601;-82
2021/03/03 23:09:18;;;;;;;68.10;29.82;;;;;;;6.16;100.00;99535.83;4455176;79;28646;-82
2021/03/03 23:15:20;;;;;;;65.40;29.80;;;;;;;6.18;100.00;99538.63;4479590;79;28547;-80
2021/03/03 23:21:22;;;;;;;58.75;26.52;;;;;;;6.14;100.00;99544.02;4518843;78;28550;-81
2021/03/03 23:27:24;;;;;;;68.22;28.65;;;;;;;6.03;100.00;99541.84;4509043;78;28597;-82
2021/03/03 23:33:26;;;;;;;77.12;31.82;;;;;;;6.02;100.00;99545.53;4546444;77;28577;-80
2021/03/03 23:39:28;;;;;;;72.22;32.75;;;;;;;6.02;100.00;99541.03;4533810;78;28542;-80
2021/03/03 23:45:32;;;;;;;80.32;34.67;;;;;;;5.82;100.00;99533.59;4502526;78;28549;-81
2021/03/03 23:51:34;;;;;;;76.50;33.45;;;;;;;5.68;100.00;99522.46;4488220;78;28572;-82
2021/03/03 23:57:36;;;;;;;77.65;33.80;;;;;;;5.41;100.00;99521.59;4524385;77;28595;-82
